Time;durP1;ratioP1;P1;durP2;ratioP2;P2;SDS_P1;SDS_P2;PMS_P1;PMS_P2;Temp;Humidity;BMP_temperature;BMP_pressure;BME280_temperature;BME280_humidity;BME280_pressure;Samples;Min_cycle;Max_cycle;Signal;HPM_P1;HPM_P2
2022/08/28 00:01:32;;;;;;;3.72;2.05;;;24.10;55.70;;;;;;10533147;28;20463;-51
2022/08/28 00:06:33;;;;;;;4.85;2.80;;;24.10;55.70;;;;;;10533177;28;20525;-49
2022/08/28 00:11:37;;;;;;;4.20;1.98;;;24.10;55.70;;;;;;10532910;28;20035;-49
2022/08/28 00:16:37;;;;;;;3.38;2.17;;;24.00;55.60;;;;;;10532785;28;20052;-50
2022/08/28 00:21:38;;;;;;;5.32;3.08;;;24.00;55.60;;;;;;10514534;28;20417;-52
2022/08/28 00:31:58;;;;;;;3.42;2.20;;;24.00;55.60;;;;;;10449092;28;20041;-53
2022/08/28 00:37:00;;;;;;;2.90;2.03;;;24.00;55.50;;;;;;10529086;28;20028;-51
2022/08/28 00:42:01;;;;;;;4.13;2.53;;;24.00;55.50;;;;;;10531329;28;20117;-51
2022/08/28 00:47:02;;;;;;;3.58;2.22;;;24.00;55.50;;;;;;10532027;28;20020;-51
2022/08/28 00:52:07;;;;;;;3.60;2.40;;;24.00;55.50;;;;;;10532266;28;20067;-51
2022/08/28 00:57:14;;;;;;;3.92;2.30;;;24.00;55.50;;;;;;10531503;28;20032;-51
2022/08/28 01:02:15;;;;;;;4.25;2.95;;;24.00;55.50;;;;;;10496738;28;20487;-51
2022/08/28 01:07:16;;;;;;;3.70;2.25;;;23.90;55.40;;;;;;10531174;28;20024;-49
2022/08/28 01:12:26;;;;;;;3.45;2.92;;;23.90;55.40;;;;;;10513000;28;20040;-52
2022/08/28 01:17:32;;;;;;;3.47;2.40;;;23.90;55.30;;;;;;10530697;28;20110;-51
2022/08/28 01:22:39;;;;;;;4.22;2.25;;;23.90;55.30;;;;;;10512503;28;20032;-48
2022/08/28 01:27:41;;;;;;;2.97;2.30;;;23.90;55.20;;;;;;10504876;28;20024;-52
2022/08/28 01:32:55;;;;;;;2.88;2.35;;;23.90;55.20;;;;;;10475164;28;20021;-49
2022/08/28 01:37:56;;;;;;;4.75;2.33;;;23.90;55.20;;;;;;10530009;28;20059;-50
2022/08/28 01:43:20;;;;;;;5.93;2.88;;;23.90;55.20;;;;;;10530125;28;20107;-48
2022/08/28 01:48:24;;;;;;;4.80;3.00;;;23.90;55.10;;;;;;10512801;28;20055;-49
2022/08/28 01:53:27;;;;;;;3.92;2.75;;;23.90;55.10;;;;;;10511674;28;20244;-51
2022/08/28 01:58:28;;;;;;;3.80;2.67;;;23.90;55.10;;;;;;10529939;28;20390;-50
2022/08/28 02:03:29;;;;;;;5.47;2.60;;;23.90;55.10;;;;;;10494796;28;20490;-51
2022/08/28 02:08:30;;;;;;;4.63;2.28;;;23.90;55.10;;;;;;10530122;28;20032;-51
2022/08/28 02:13:32;;;;;;;5.35;2.65;;;23.80;55.70;;;;;;10529669;28;20547;-50
2022/08/28 02:18:33;;;;;;;6.35;2.92;;;23.80;55.00;;;;;;10512325;28;20034;-51
2022/08/28 02:23:37;;;;;;;6.00;2.60;;;23.80;54.90;;;;;;10529334;28;20024;-49
2022/08/28 02:28:38;;;;;;;4.25;2.72;;;23.80;54.90;;;;;;10513513;28;20089;-47
2022/08/28 02:33:43;;;;;;;3.70;2.13;;;23.80;54.80;;;;;;10481391;28;20028;-50
2022/08/28 02:38:46;;;;;;;3.53;2.50;;;23.80;54.90;;;;;;10528568;28;20071;-51
2022/08/28 02:43:47;;;;;;;2.80;1.90;;;23.80;54.90;;;;;;10511181;28;20035;-50
2022/08/28 02:48:48;;;;;;;5.15;2.85;;;23.80;54.90;;;;;;10528432;28;20028;-51
2022/08/28 02:53:49;;;;;;;4.30;2.45;;;23.80;55.20;;;;;;10528478;28;20490;-48
2022/08/28 02:58:50;;;;;;;11.57;2.85;;;23.80;54.80;;;;;;10528592;28;20113;-49
2022/08/28 03:03:50;;;;;;;3.42;2.50;;;23.80;54.80;;;;;;10531401;28;20055;-50
2022/08/28 03:08:51;;;;;;;4.55;2.53;;;23.70;54.70;;;;;;10517623;28;20024;-51
2022/08/28 03:13:52;;;;;;;4.70;2.75;;;23.70;54.70;;;;;;10535161;28;20047;-50
2022/08/28 03:18:52;;;;;;;6.13;2.78;;;23.70;54.60;;;;;;10517235;28;20035;-51
2022/08/28 03:23:53;;;;;;;4.25;2.60;;;23.70;54.60;;;;;;10535867;28;20074;-50
2022/08/28 03:28:56;;;;;;;3.63;2.53;;;23.70;54.50;;;;;;10516563;28;20232;-49
2022/08/28 03:33:57;;;;;;;2.65;1.90;;;23.70;54.40;;;;;;10507276;28;20032;-49
2022/08/28 03:39:01;;;;;;;3.95;2.45;;;23.70;54.40;;;;;;10534130;28;20052;-48
2022/08/28 03:44:02;;;;;;;6.10;2.72;;;23.70;54.40;;;;;;10534054;28;20394;-50
2022/08/28 03:49:03;;;;;;;3.35;2.50;;;23.60;54.30;;;;;;10515567;28;20040;-49
2022/08/28 03:54:04;;;;;;;3.17;2.20;;;23.60;54.30;;;;;;10515643;28;20055;-49
2022/08/28 03:59:05;;;;;;;5.05;2.45;;;23.60;54.30;;;;;;10533397;28;20024;-50
2022/08/28 04:04:06;;;;;;;3.13;2.10;;;23.60;54.20;;;;;;10534212;28;20111;-48
2022/08/28 04:09:07;;;;;;;4.00;2.60;;;23.60;54.50;;;;;;10533559;28;20539;-49
2022/08/28 04:14:09;;;;;;;4.22;2.75;;;23.60;54.20;;;;;;10533452;28;20032;-49
2022/08/28 04:19:10;;;;;;;3.90;2.50;;;23.60;54.10;;;;;;10515088;28;20387;-49
2022/08/28 04:24:12;;;;;;;3.50;2.65;;;23.60;54.10;;;;;;10532722;28;20111;-49
2022/08/28 04:29:13;;;;;;;3.78;2.67;;;23.60;54.10;;;;;;10511648;28;20074;-48
2022/08/28 04:34:13;;;;;;;3.70;2.42;;;23.60;54.10;;;;;;10506327;28;20036;-52
2022/08/28 04:39:14;;;;;;;3.63;2.58;;;23.60;54.00;;;;;;10529240;28;20047;-50
2022/08/28 04:44:15;;;;;;;4.68;2.28;;;23.60;54.00;;;;;;10534081;28;20107;-50
2022/08/28 04:49:16;;;;;;;4.13;2.55;;;23.50;53.90;;;;;;10515548;28;20035;-49
2022/08/28 04:54:17;;;;;;;3.15;1.98;;;23.50;53.80;;;;;;10533570;28;20038;-49
2022/08/28 04:59:18;;;;;;;4.03;2.25;;;23.50;53.80;;;;;;10533337;28;20034;-48
2022/08/28 05:04:19;;;;;;;4.45;2.72;;;23.50;53.80;;;;;;10533022;28;20103;-50
2022/08/28 05:09:20;;;;;;;3.92;2.40;;;23.50;53.80;;;;;;10514841;28;20403;-49
2022/08/28 05:14:21;;;;;;;4.13;2.63;;;23.50;53.80;;;;;;10514568;28;20475;-51
2022/08/28 05:19:23;;;;;;;3.85;2.50;;;23.50;53.80;;;;;;10532887;28;20027;-51
2022/08/28 05:24:24;;;;;;;3.95;2.53;;;23.40;53.80;;;;;;10532155;28;20107;-48
2022/08/28 05:29:24;;;;;;;3.95;2.60;;;23.50;53.80;;;;;;10509489;28;20505;-48
2022/08/28 05:34:25;;;;;;;5.05;2.40;;;23.40;53.70;;;;;;10508928;28;20119;-50
2022/08/28 05:39:25;;;;;;;4.22;1.90;;;23.50;53.80;;;;;;10531644;28;20043;-48
2022/08/28 05:44:26;;;;;;;2.63;1.90;;;23.40;53.80;;;;;;10531725;28;20084;-49
2022/08/28 05:49:27;;;;;;;3.67;2.55;;;23.40;53.80;;;;;;10531883;28;20027;-50
2022/08/28 05:54:27;;;;;;;4.65;2.20;;;23.40;53.80;;;;;;10531539;28;20414;-50
2022/08/28 05:59:28;;;;;;;4.43;2.38;;;23.40;53.90;;;;;;10531042;28;20076;-49
2022/08/28 06:04:29;;;;;;;2.53;1.67;;;23.40;54.00;;;;;;10513308;28;20024;-50
2022/08/28 06:09:30;;;;;;;3.03;2.33;;;23.40;54.00;;;;;;10513441;28;20085;-52
2022/08/28 06:14:32;;;;;;;2.85;2.10;;;23.40;54.10;;;;;;10512851;28;20028;-49
2022/08/28 06:19:34;;;;;;;3.10;2.25;;;23.40;54.20;;;;;;10530913;28;20035;-49
2022/08/28 06:24:36;;;;;;;6.22;2.83;;;23.40;54.20;;;;;;10531059;28;20078;-49
2022/08/28 06:29:38;;;;;;;3.17;2.13;;;23.40;54.30;;;;;;10488507;28;20408;-48
2022/08/28 06:34:39;;;;;;;4.60;2.50;;;23.40;54.40;;;;;;10509657;28;20437;-48
2022/08/28 06:39:40;;;;;;;2.90;2.13;;;23.40;54.60;;;;;;10517091;28;20038;-49
2022/08/28 06:44:40;;;;;;;4.38;2.10;;;23.40;54.80;;;;;;10538616;28;20028;-49
2022/08/28 06:49:41;;;;;;;4.00;1.88;;;23.40;54.80;;;;;;10538701;28;20024;-49
2022/08/28 06:54:42;;;;;;;2.78;1.95;;;23.40;54.90;;;;;;10538284;28;20181;-49
2022/08/28 06:59:42;;;;;;;3.80;2.38;;;23.40;54.90;;;;;;10537517;28;20364;-49
2022/08/28 07:04:43;;;;;;;2.58;1.63;;;23.30;55.00;;;;;;10537865;28;20544;-50
2022/08/28 07:09:44;;;;;;;3.75;1.90;;;23.40;55.20;;;;;;10537708;28;20060;-51
2022/08/28 07:14:45;;;;;;;2.28;1.75;;;23.30;55.80;;;;;;10537671;28;20522;-50
2022/08/28 07:19:46;;;;;;;2.10;1.55;;;23.30;55.30;;;;;;10537042;28;20028;-50
2022/08/28 07:24:47;;;;;;;4.78;1.92;;;23.30;55.40;;;;;;10519409;28;20028;-51
2022/08/28 07:29:47;;;;;;;3.55;2.10;;;23.30;55.50;;;;;;10510591;28;20040;-51
2022/08/28 07:34:49;;;;;;;4.05;2.17;;;23.30;55.50;;;;;;10516919;28;20041;-51
2022/08/28 07:39:49;;;;;;;3.53;1.90;;;23.30;55.50;;;;;;10518089;28;20056;-52
2022/08/28 07:44:53;;;;;;;4.22;1.75;;;23.30;55.60;;;;;;10518130;28;20129;-48
2022/08/28 07:49:54;;;;;;;2.92;1.83;;;23.30;55.60;;;;;;10535444;28;20161;-53
2022/08/28 07:54:55;;;;;;;2.85;1.88;;;23.30;55.70;;;;;;10535747;28;20031;-53
2022/08/28 08:00:00;;;;;;;3.22;1.90;;;23.30;55.70;;;;;;10517433;28;20036;-50
2022/08/28 08:05:00;;;;;;;3.33;1.58;;;23.30;55.50;;;;;;10535796;28;20074;-49
2022/08/28 08:10:01;;;;;;;3.55;1.92;;;23.30;55.40;;;;;;10517218;28;20039;-50
2022/08/28 08:15:02;;;;;;;2.50;1.80;;;23.30;55.30;;;;;;10534729;28;20785;-52
2022/08/28 08:20:05;;;;;;;3.35;2.03;;;23.30;55.50;;;;;;10517069;28;20060;-52
2022/08/28 08:25:07;;;;;;;2.35;1.58;;;23.30;55.40;;;;;;10534992;28;20028;-53
2022/08/28 08:30:09;;;;;;;4.22;2.22;;;23.40;55.60;;;;;;10534421;28;20497;-53
2022/08/28 08:35:11;;;;;;;5.32;2.15;;;23.30;55.70;;;;;;10534694;28;20028;-50
2022/08/28 08:40:17;;;;;;;3.40;1.80;;;23.40;55.70;;;;;;10533815;28;20043;-51
2022/08/28 08:45:23;;;;;;;3.22;1.85;;;23.40;55.60;;;;;;10533939;28;20028;-50
2022/08/28 08:50:30;;;;;;;2.22;1.45;;;23.40;55.30;;;;;;10516045;28;20364;-52
2022/08/28 08:55:40;;;;;;;3.42;1.70;;;23.40;55.20;;;;;;10515883;28;20035;-52
2022/08/28 09:01:15;;;;;;;3.25;1.90;;;23.50;55.30;;;;;;10515554;28;20036;-51
2022/08/28 09:06:47;;;;;;;6.05;2.13;;;23.50;55.20;;;;;;10532950;28;20348;-51
2022/08/28 09:12:05;;;;;;;2.25;1.60;;;23.50;55.20;;;;;;10498327;28;20120;-50
2022/08/28 09:17:08;;;;;;;2.70;1.60;;;23.50;55.20;;;;;;10514937;28;20024;-52
2022/08/28 09:22:09;;;;;;;2.88;1.65;;;23.50;55.30;;;;;;10514475;28;20024;-52
2022/08/28 09:27:33;;;;;;;3.50;1.50;;;23.50;55.30;;;;;;10510833;28;20626;-52
2022/08/28 09:32:42;;;;;;;4.78;1.42;;;23.50;55.20;;;;;;10494010;28;20032;-51
2022/08/28 09:37:43;;;;;;;;;;;23.50;55.10;;;;;;10532646;28;20052;-51
2022/08/28 09:43:26;;;;;;;3.13;1.17;;;23.50;55.10;;;;;;10513863;28;19912;-50
2022/08/28 09:48:37;;;;;;;2.22;1.23;;;23.50;55.20;;;;;;10531744;28;20122;-51
2022/08/28 09:53:54;;;;;;;2.88;1.40;;;23.50;55.00;;;;;;10513955;28;20110;-52
2022/08/28 09:59:15;;;;;;;3.05;1.48;;;23.50;54.90;;;;;;10531645;28;20020;-52
2022/08/28 10:04:34;;;;;;;2.45;1.15;;;23.50;54.90;;;;;;10513571;28;20499;-52
2022/08/28 10:10:01;;;;;;;3.58;1.60;;;23.50;54.70;;;;;;10531389;28;20063;-53
2022/08/28 10:16:02;;;;;;;2.67;1.75;;;23.50;55.50;;;;;;10538595;28;20077;-51
2022/08/28 10:21:30;;;;;;;2.42;1.25;;;23.50;55.00;;;;;;10510119;28;20044;-52
2022/08/28 10:26:43;;;;;;;2.50;1.67;;;23.50;55.30;;;;;;10524163;28;20467;-49
2022/08/28 10:32:25;;;;;;;2.33;1.50;;;23.50;55.00;;;;;;10497052;28;20043;-51
2022/08/28 10:37:59;;;;;;;2.58;1.52;;;23.50;55.30;;;;;;10455874;28;20132;-49
2022/08/28 10:43:35;;;;;;;2.30;1.48;;;23.60;55.50;;;;;;10455650;28;20040;-51
2022/08/28 10:48:46;;;;;;;1.50;1.23;;;23.60;55.30;;;;;;10437600;28;20039;-51
2022/08/28 10:54:05;;;;;;;1.90;1.30;;;23.60;55.00;;;;;;10454949;28;20029;-50
2022/08/28 10:59:05;;;;;;;2.22;1.20;;;23.60;54.90;;;;;;10437834;28;20037;-51
2022/08/28 11:04:17;;;;;;;2.33;1.20;;;23.60;55.60;;;;;;10455035;28;20369;-51
2022/08/28 11:09:31;;;;;;;2.22;1.80;;;23.60;55.50;;;;;;10454521;28;20535;-52
2022/08/28 11:14:41;;;;;;;2.97;1.60;;;23.60;55.60;;;;;;10436209;28;20033;-55
2022/08/28 11:20:11;;;;;;;2.92;1.30;;;23.60;55.50;;;;;;10436124;28;20481;-53
2022/08/28 11:25:20;;;;;;;2.08;1.10;;;23.60;55.10;;;;;;10453047;28;20651;-49
2022/08/28 11:30:31;;;;;;;2.13;1.40;;;23.60;55.30;;;;;;10483717;28;20101;-52
2022/08/28 11:35:47;;;;;;;2.28;1.00;;;23.60;56.30;;;;;;10522911;28;20134;-52
2022/08/28 11:40:52;;;;;;;2.10;1.08;;;23.60;55.50;;;;;;10536384;28;20075;-51
2022/08/28 11:45:53;;;;;;;2.88;1.25;;;23.60;55.40;;;;;;10518713;28;20027;-52
2022/08/28 11:51:05;;;;;;;2.75;1.60;;;23.60;55.50;;;;;;10536526;28;20064;-50
2022/08/28 11:57:02;;;;;;;1.42;1.00;;;23.60;55.60;;;;;;10518130;28;20081;-52
2022/08/28 12:02:42;;;;;;;2.47;1.33;;;23.70;55.40;;;;;;10517310;28;20071;-49
2022/08/28 12:07:47;;;;;;;3.60;2.03;;;23.60;55.80;;;;;;10518407;28;20036;-52
2022/08/28 12:12:58;;;;;;;1.60;1.02;;;23.70;55.50;;;;;;10534993;28;20028;-52
2022/08/28 12:18:38;;;;;;;2.97;1.45;;;23.70;55.10;;;;;;10518375;28;20527;-53
2022/08/28 12:24:01;;;;;;;3.15;1.45;;;23.60;55.40;;;;;;10534907;28;20314;-51
2022/08/28 12:29:19;;;;;;;3.20;1.20;;;23.60;55.70;;;;;;10498137;28;20450;-51
2022/08/28 12:34:58;;;;;;;2.55;1.27;;;23.70;55.70;;;;;;10477672;28;20024;-53
2022/08/28 12:40:33;;;;;;;1.45;1.10;;;23.70;55.10;;;;;;10532513;28;20411;-50
2022/08/28 12:45:49;;;;;;;1.70;1.00;;;23.70;55.40;;;;;;10520201;28;20051;-51
2022/08/28 12:51:06;;;;;;;2.47;1.33;;;23.60;55.60;;;;;;10515929;28;20055;-53
2022/08/28 12:56:10;;;;;;;1.98;1.17;;;23.60;55.80;;;;;;10533542;28;20179;-53
2022/08/28 13:01:20;;;;;;;2.25;1.13;;;23.60;55.70;;;;;;10515130;28;20088;-52
2022/08/28 13:06:35;;;;;;;1.80;1.05;;;23.70;55.80;;;;;;10532778;28;20601;-52
2022/08/28 13:11:38;;;;;;;3.28;1.13;;;23.70;55.60;;;;;;10515210;28;20111;-53
2022/08/28 13:16:43;;;;;;;3.45;1.67;;;23.80;55.60;;;;;;10532944;28;20063;-51
2022/08/28 13:21:47;;;;;;;1.60;0.90;;;23.80;55.30;;;;;;10514752;28;20043;-51
2022/08/28 13:26:58;;;;;;;3.10;1.65;;;23.80;55.40;;;;;;10532730;28;20113;-53
2022/08/28 13:32:05;;;;;;;1.63;1.00;;;23.70;55.20;;;;;;10473458;28;20035;-51
2022/08/28 13:37:09;;;;;;;1.75;1.10;;;23.70;55.30;;;;;;10530892;28;20020;-49
2022/08/28 13:42:14;;;;;;;1.88;1.08;;;23.70;55.40;;;;;;10532059;28;20032;-53
2022/08/28 13:47:16;;;;;;;2.10;1.17;;;23.60;55.40;;;;;;10513435;28;20028;-53
2022/08/28 13:52:16;;;;;;;1.42;1.08;;;23.60;55.70;;;;;;10531794;28;20028;-53
2022/08/28 13:57:17;;;;;;;3.78;1.33;;;23.70;55.70;;;;;;10531529;28;20036;-53
2022/08/28 14:07:38;;;;;;;2.05;1.10;;;23.60;55.40;;;;;;10516720;28;20044;-52
2022/08/28 14:12:41;;;;;;;2.60;0.95;;;23.60;55.50;;;;;;10531639;28;20098;-49
2022/08/28 14:17:43;;;;;;;1.60;0.95;;;23.60;55.70;;;;;;10530829;28;20028;-51
2022/08/28 14:22:44;;;;;;;4.22;0.95;;;23.60;55.20;;;;;;10531408;28;20521;-52
2022/08/28 14:27:45;;;;;;;1.50;0.95;;;23.60;55.40;;;;;;10522582;28;20111;-50
2022/08/28 14:32:46;;;;;;;2.03;1.10;;;23.60;55.60;;;;;;10475906;28;20035;-52
2022/08/28 14:37:46;;;;;;;2.03;1.40;;;23.60;55.30;;;;;;10530754;28;20104;-53
2022/08/28 14:42:49;;;;;;;1.60;1.10;;;23.60;55.20;;;;;;10513072;28;20032;-51
2022/08/28 14:47:50;;;;;;;2.00;0.93;;;23.60;55.30;;;;;;10530286;28;20020;-52
2022/08/28 14:52:50;;;;;;;1.30;0.90;;;23.60;54.90;;;;;;10530691;28;20032;-52
2022/08/28 14:57:51;;;;;;;2.30;1.33;;;23.60;55.30;;;;;;10531371;28;20127;-51
2022/08/28 15:02:52;;;;;;;1.95;1.13;;;23.60;55.00;;;;;;10520108;28;20027;-51
2022/08/28 15:07:52;;;;;;;1.92;0.77;;;23.60;54.90;;;;;;10538651;28;20034;-51
2022/08/28 15:12:53;;;;;;;2.15;0.98;;;23.60;55.00;;;;;;10519276;28;20147;-53
2022/08/28 15:17:54;;;;;;;1.63;1.10;;;23.70;54.90;;;;;;10537708;28;20028;-52
2022/08/28 15:22:54;;;;;;;1.95;1.13;;;23.60;54.90;;;;;;10536862;28;20032;-52
2022/08/28 15:27:55;;;;;;;2.90;0.93;;;23.60;55.30;;;;;;10527319;28;20099;-53
2022/08/28 15:32:56;;;;;;;2.08;1.10;;;23.60;55.00;;;;;;10500728;28;20115;-52
2022/08/28 15:37:57;;;;;;;3.70;1.45;;;23.60;55.00;;;;;;10536433;28;20534;-49
2022/08/28 15:42:58;;;;;;;2.60;1.55;;;23.60;55.10;;;;;;10518437;28;20229;-49
2022/08/28 15:47:59;;;;;;;2.08;1.00;;;23.60;54.70;;;;;;10536027;28;20059;-52
2022/08/28 15:53:00;;;;;;;2.15;1.05;;;23.60;54.70;;;;;;10535860;28;20107;-51
2022/08/28 15:58:01;;;;;;;1.25;1.00;;;23.60;54.80;;;;;;10535971;28;20032;-52
2022/08/28 16:03:02;;;;;;;2.67;1.20;;;23.60;54.90;;;;;;10535357;28;20027;-51
2022/08/28 16:08:03;;;;;;;1.30;0.85;;;23.60;54.60;;;;;;10535200;28;20502;-51
2022/08/28 16:13:05;;;;;;;1.98;0.93;;;23.60;54.60;;;;;;10535229;28;20034;-51
2022/08/28 16:18:08;;;;;;;2.15;1.05;;;23.60;54.90;;;;;;10517091;28;20034;-52
2022/08/28 16:23:11;;;;;;;1.95;1.13;;;23.60;54.70;;;;;;10534683;28;20052;-53
2022/08/28 16:28:12;;;;;;;1.45;0.85;;;23.60;54.80;;;;;;10522525;28;20380;-52
2022/08/28 16:33:15;;;;;;;1.88;1.20;;;23.60;54.80;;;;;;10483187;28;20038;-51
2022/08/28 16:38:16;;;;;;;1.92;1.25;;;23.60;54.90;;;;;;10533836;28;20125;-52
2022/08/28 16:43:18;;;;;;;1.35;0.82;;;23.60;55.10;;;;;;10515807;28;20024;-50
2022/08/28 16:48:18;;;;;;;2.10;1.30;;;23.60;54.90;;;;;;10533670;28;20020;-52
2022/08/28 16:53:19;;;;;;;1.77;1.30;;;23.60;54.50;;;;;;10515410;28;20032;-49
2022/08/28 16:58:19;;;;;;;1.67;1.10;;;23.60;54.40;;;;;;10498601;28;20036;-52
2022/08/28 17:03:20;;;;;;;1.80;1.13;;;23.60;54.40;;;;;;10515397;28;20107;-51
2022/08/28 17:08:21;;;;;;;1.83;1.23;;;23.60;54.70;;;;;;10533117;28;20020;-51
2022/08/28 17:13:22;;;;;;;1.95;0.88;;;23.60;54.60;;;;;;10532887;28;20441;-51
2022/08/28 17:18:22;;;;;;;2.47;1.15;;;23.60;54.60;;;;;;10532643;28;20038;-52
2022/08/28 17:23:23;;;;;;;1.58;1.13;;;23.60;54.50;;;;;;10531995;28;20035;-51
2022/08/28 17:28:24;;;;;;;2.85;1.40;;;23.60;54.80;;;;;;10518411;28;20117;-51
2022/08/28 17:33:24;;;;;;;2.20;1.20;;;23.60;54.80;;;;;;10500367;28;20103;-51
2022/08/28 17:38:25;;;;;;;1.23;1.10;;;23.60;54.60;;;;;;10532291;28;20048;-48
2022/08/28 17:43:26;;;;;;;2.00;1.20;;;23.60;54.70;;;;;;10532121;28;20040;-52
2022/08/28 17:48:29;;;;;;;2.08;1.10;;;23.60;54.50;;;;;;10514660;28;20062;-53
2022/08/28 17:53:30;;;;;;;2.70;1.13;;;23.60;54.70;;;;;;10531847;28;20071;-51
2022/08/28 17:58:32;;;;;;;1.95;0.95;;;23.60;54.70;;;;;;10531267;28;20024;-52
2022/08/28 18:03:32;;;;;;;2.03;1.10;;;23.60;54.70;;;;;;10531670;28;20362;-50
2022/08/28 18:08:33;;;;;;;2.70;1.20;;;23.60;54.70;;;;;;10531576;28;20178;-52
2022/08/28 18:13:34;;;;;;;2.45;1.10;;;23.60;54.70;;;;;;10531036;28;20028;-52
2022/08/28 18:18:34;;;;;;;2.47;1.35;;;23.60;55.40;;;;;;10531526;28;20036;-50
2022/08/28 18:23:36;;;;;;;1.83;1.08;;;23.60;54.70;;;;;;10531175;28;20032;-49
2022/08/28 18:28:36;;;;;;;2.53;1.20;;;23.60;54.70;;;;;;10515363;28;20027;-53
2022/08/28 18:33:37;;;;;;;2.83;1.20;;;23.60;54.80;;;;;;10504416;28;20091;-49
2022/08/28 18:38:39;;;;;;;1.98;1.27;;;23.60;55.40;;;;;;10520688;28;20114;-50
2022/08/28 18:43:40;;;;;;;1.83;1.00;;;23.60;54.80;;;;;;10520591;28;20357;-48
2022/08/28 18:48:41;;;;;;;2.88;1.08;;;23.60;54.80;;;;;;10538790;28;20028;-48
2022/08/28 18:53:42;;;;;;;2.25;1.15;;;23.60;54.90;;;;;;10520294;28;20414;-51
2022/08/28 18:58:43;;;;;;;1.25;0.88;;;23.60;54.90;;;;;;10538655;28;20106;-49
2022/08/28 19:03:44;;;;;;;1.50;1.13;;;23.60;54.90;;;;;;10519322;28;20066;-50
2022/08/28 19:08:45;;;;;;;1.80;1.13;;;23.60;54.90;;;;;;10536195;28;20413;-50
2022/08/28 19:13:46;;;;;;;1.85;0.90;;;23.60;54.90;;;;;;10536097;28;20039;-51
2022/08/28 19:18:47;;;;;;;1.85;1.00;;;23.60;55.00;;;;;;10536151;28;20103;-50
2022/08/28 19:23:51;;;;;;;1.75;1.33;;;23.60;55.00;;;;;;10534244;28;20032;-50
2022/08/28 19:28:52;;;;;;;2.47;1.00;;;23.60;55.00;;;;;;10518275;28;20036;-48
2022/08/28 19:33:54;;;;;;;2.22;1.00;;;23.70;55.10;;;;;;10507254;28;20031;-50
2022/08/28 19:38:58;;;;;;;1.10;0.88;;;23.60;55.00;;;;;;10534945;28;20050;-48
2022/08/28 19:43:58;;;;;;;1.17;0.88;;;23.60;55.10;;;;;;10534305;28;20048;-49
2022/08/28 19:49:02;;;;;;;1.73;1.00;;;23.60;55.10;;;;;;10535109;28;20032;-51
2022/08/28 19:54:03;;;;;;;1.35;1.10;;;23.70;55.10;;;;;;10535168;28;20024;-51
2022/08/28 19:59:06;;;;;;;1.42;1.00;;;23.70;55.10;;;;;;10516368;28;20541;-50
2022/08/28 20:04:08;;;;;;;1.13;0.93;;;23.60;55.10;;;;;;10533846;28;20032;-50
2022/08/28 20:09:10;;;;;;;1.63;1.17;;;23.60;55.10;;;;;;10533423;28;20056;-52
2022/08/28 20:14:12;;;;;;;1.20;1.00;;;23.60;55.20;;;;;;10515026;28;20643;-52
2022/08/28 20:19:14;;;;;;;3.15;1.27;;;23.70;55.20;;;;;;10533314;28;20031;-50
2022/08/28 20:24:22;;;;;;;1.35;0.90;;;23.70;55.10;;;;;;10532811;28;20059;-50
2022/08/28 20:29:23;;;;;;;2.07;1.10;;;23.70;55.10;;;;;;10510543;28;20086;-52
2022/08/28 20:34:23;;;;;;;2.95;1.13;;;23.70;55.10;;;;;;10490867;28;20352;-52
2022/08/28 20:39:24;;;;;;;1.33;0.73;;;23.60;55.10;;;;;;10532090;28;20051;-50
2022/08/28 20:44:25;;;;;;;1.15;0.93;;;23.70;55.10;;;;;;10532441;28;20016;-51
2022/08/28 20:49:25;;;;;;;1.65;0.98;;;23.60;55.10;;;;;;10531822;28;20102;-52
2022/08/28 20:54:36;;;;;;;1.92;0.98;;;23.60;55.00;;;;;;10513750;28;20391;-49
2022/08/28 20:59:39;;;;;;;1.88;1.20;;;23.60;55.00;;;;;;10512766;28;20040;-49
2022/08/28 21:04:42;;;;;;;2.30;1.10;;;23.60;55.00;;;;;;10514075;28;20495;-51
2022/08/28 21:09:43;;;;;;;2.00;0.80;;;23.60;55.00;;;;;;10532258;28;20344;-52
2022/08/28 21:14:44;;;;;;;2.13;0.93;;;23.60;55.00;;;;;;10530645;28;20073;-49
2022/08/28 21:19:45;;;;;;;1.83;1.27;;;23.60;55.00;;;;;;10530615;28;20024;-51
2022/08/28 21:24:45;;;;;;;2.88;1.38;;;23.60;55.00;;;;;;10530682;28;20538;-52
2022/08/28 21:29:46;;;;;;;2.83;1.27;;;23.60;55.10;;;;;;10505208;28;20052;-51
2022/08/28 21:34:47;;;;;;;2.40;1.40;;;23.60;55.10;;;;;;10510354;28;20058;-50
2022/08/28 21:39:48;;;;;;;1.40;1.15;;;23.60;55.10;;;;;;10511731;28;20055;-51
2022/08/28 21:44:48;;;;;;;2.00;1.05;;;23.60;55.10;;;;;;10530495;28;20467;-50
2022/08/28 21:49:53;;;;;;;2.03;1.20;;;23.60;55.10;;;;;;10530243;28;20114;-48
2022/08/28 21:54:59;;;;;;;1.20;0.80;;;23.60;55.10;;;;;;10529879;28;20032;-53
2022/08/28 22:00:00;;;;;;;2.50;1.17;;;23.60;55.10;;;;;;10529623;28;20031;-49
2022/08/28 22:05:01;;;;;;;2.63;1.02;;;23.60;55.10;;;;;;10529624;28;20031;-48
2022/08/28 22:10:03;;;;;;;2.50;1.33;;;23.60;55.10;;;;;;10535708;28;20028;-52
2022/08/28 22:15:04;;;;;;;2.33;1.17;;;23.60;55.10;;;;;;10519742;28;20117;-50
2022/08/28 22:20:06;;;;;;;2.33;1.00;;;23.50;55.10;;;;;;10520130;28;20522;-52
2022/08/28 22:25:07;;;;;;;2.33;1.17;;;23.50;55.10;;;;;;10520087;28;20154;-49
2022/08/28 22:30:09;;;;;;;1.63;1.02;;;23.50;55.00;;;;;;10510070;28;20467;-50
2022/08/28 22:35:10;;;;;;;1.95;1.13;;;23.50;55.10;;;;;;10520332;28;20031;-51
2022/08/28 22:40:11;;;;;;;1.42;1.25;;;23.50;55.10;;;;;;10537368;28;20495;-48
2022/08/28 22:45:12;;;;;;;2.42;1.60;;;23.50;55.00;;;;;;10519215;28;20497;-49
2022/08/28 22:50:13;;;;;;;1.60;0.98;;;23.50;55.00;;;;;;10536907;28;20328;-48
2022/08/28 22:55:17;;;;;;;2.13;1.02;;;23.50;55.00;;;;;;10537160;28;20096;-49
2022/08/28 23:00:22;;;;;;;2.80;1.55;;;23.50;55.00;;;;;;10536941;28;20059;-50
2022/08/28 23:05:26;;;;;;;1.65;1.05;;;23.50;55.00;;;;;;10536377;28;20417;-50
2022/08/28 23:10:27;;;;;;;1.70;1.00;;;23.50;55.00;;;;;;10535958;28;20032;-51
2022/08/28 23:15:28;;;;;;;1.45;0.80;;;23.50;55.10;;;;;;10536012;28;20036;-49
2022/08/28 23:20:28;;;;;;;2.00;1.08;;;23.50;55.00;;;;;;10534284;28;20478;-51
2022/08/28 23:25:29;;;;;;;1.75;1.05;;;23.50;55.00;;;;;;10536226;28;20073;-50
2022/08/28 23:30:30;;;;;;;1.67;0.90;;;23.50;55.00;;;;;;10503532;28;20039;-51
2022/08/28 23:35:31;;;;;;;2.47;0.90;;;23.50;55.00;;;;;;10520909;28;20082;-49
2022/08/28 23:40:32;;;;;;;1.17;0.80;;;23.50;54.90;;;;;;10534745;28;20048;-51
2022/08/28 23:45:33;;;;;;;1.02;0.82;;;23.50;55.00;;;;;;10534305;28;20592;-49
2022/08/28 23:50:34;;;;;;;1.63;0.90;;;23.40;54.90;;;;;;10534558;28;20158;-50
2022/08/28 23:55:35;;;;;;;2.60;1.02;;;23.40;54.80;;;;;;10515762;28;20028;-47
